createdAt,value
2019-02-11T00:00:55.582Z,85.50
2019-02-11T00:03:24.015Z,84.20
2019-02-11T00:05:52.443Z,85.00
2019-02-11T00:08:21.201Z,84.00
2019-02-11T00:10:49.612Z,84.10
2019-02-11T00:13:18.317Z,82.60
2019-02-11T00:15:46.733Z,83.00
2019-02-11T00:18:15.164Z,83.70
2019-02-11T00:20:43.606Z,81.50
2019-02-11T00:23:12.021Z,82.80
2019-02-11T00:25:40.769Z,83.40
2019-02-11T00:28:09.453Z,83.00
2019-02-11T00:30:37.893Z,84.10
2019-02-11T00:33:06.621Z,82.70
2019-02-11T00:35:35.410Z,82.10
2019-02-11T00:38:04.198Z,82.10
2019-02-11T00:40:32.987Z,81.70
2019-02-11T00:43:01.778Z,81.90
2019-02-11T00:45:30.571Z,82.40
2019-02-11T00:47:58.982Z,82.30
2019-02-11T00:50:27.737Z,81.20
2019-02-11T00:52:56.422Z,81.10
2019-02-11T00:55:24.865Z,80.90
2019-02-11T00:57:53.305Z,82.20
2019-02-11T01:00:22.086Z,84.00
2019-02-11T01:02:50.778Z,85.70
2019-02-11T01:05:19.543Z,86.60
2019-02-11T01:07:47.969Z,87.00
2019-02-11T01:10:16.730Z,87.00
2019-02-11T01:12:45.509Z,87.20
2019-02-11T01:15:15.373Z,88.50
2019-02-11T01:17:43.818Z,90.40
2019-02-11T01:20:13.096Z,90.90
2019-02-11T01:22:41.526Z,90.90
2019-02-11T01:25:10.177Z,91.30
2019-02-11T01:27:38.592Z,90.40
2019-02-11T01:30:11.771Z,90.40
2019-02-11T01:32:40.189Z,90.00
2019-02-11T01:35:09.314Z,89.40
2019-02-11T01:37:37.745Z,88.10
2019-02-11T01:40:08.973Z,88.00
2019-02-11T01:42:37.389Z,88.00
2019-02-11T01:45:09.375Z,89.20
2019-02-11T01:47:37.810Z,88.30
2019-02-11T01:50:09.332Z,90.10
2019-02-11T01:52:38.122Z,86.80
2019-02-11T01:55:06.891Z,87.20
2019-02-11T01:57:35.773Z,88.30
2019-02-11T02:00:06.619Z,88.50
2019-02-11T02:02:35.449Z,88.90
2019-02-11T02:05:04.951Z,88.50
2019-02-11T02:07:33.381Z,86.70
2019-02-11T02:10:01.803Z,86.60
2019-02-11T02:12:30.225Z,86.70
2019-02-11T02:14:58.656Z,86.60
2019-02-11T02:17:27.347Z,86.30
2019-02-11T02:19:56.110Z,86.60
2019-02-11T02:22:24.794Z,88.10
2019-02-11T02:24:54.195Z,88.10
2019-02-11T02:27:22.885Z,89.50
2019-02-11T02:29:51.569Z,90.00
2019-02-11T02:32:20.065Z,91.00
2019-02-11T02:34:48.843Z,90.80
2019-02-11T02:37:17.269Z,91.50
2019-02-11T02:39:45.709Z,91.80
2019-02-11T02:42:14.389Z,92.40
2019-02-11T02:44:42.825Z,92.50
2019-02-11T02:47:11.249Z,93.60
2019-02-11T02:49:39.690Z,94.10
2019-02-11T02:52:08.122Z,94.30
2019-02-11T02:54:36.547Z,94.80
2019-02-11T02:57:05.299Z,95.70
2019-02-11T02:59:34.065Z,95.40
2019-02-11T03:02:02.534Z,95.80
2019-02-11T03:04:30.985Z,96.60
2019-02-11T03:06:59.406Z,96.90
2019-02-11T03:09:28.198Z,97.60
2019-02-11T03:11:56.885Z,98.10
2019-02-11T03:14:25.444Z,97.90
2019-02-11T03:16:54.251Z,99.40
2019-02-11T03:19:22.676Z,99.00
2019-02-11T03:21:51.109Z,99.30
2019-02-11T03:24:19.528Z,99.30
2019-02-11T03:26:48.290Z,99.30
2019-02-11T03:29:16.701Z,99.60
2019-02-11T03:31:45.144Z,99.70
2019-02-11T03:34:13.575Z,99.80
2019-02-11T03:36:42.311Z,99.90
2019-02-11T03:39:10.736Z,99.90
2019-02-11T03:41:39.157Z,99.90
2019-02-11T03:44:14.905Z,99.90
2019-02-11T03:46:37.751Z,99.90
2019-02-11T03:49:06.460Z,99.90
2019-02-11T03:51:35.815Z,99.90
2019-02-11T03:54:04.226Z,99.90
2019-02-11T03:56:33.127Z,99.90
2019-02-11T03:59:01.858Z,99.90
2019-02-11T04:01:30.277Z,99.90
2019-02-11T04:03:58.711Z,99.90
2019-02-11T04:06:27.467Z,99.90
2019-02-11T04:08:55.896Z,99.90
2019-02-11T04:11:24.642Z,99.90
2019-02-11T04:13:53.430Z,99.90
2019-02-11T04:16:21.848Z,99.90
2019-02-11T04:18:50.289Z,99.90
2019-02-11T04:21:18.701Z,99.90
2019-02-11T04:23:47.454Z,99.90
2019-02-11T04:26:15.869Z,99.90
2019-02-11T04:28:44.617Z,99.90
2019-02-11T04:31:13.034Z,99.90
2019-02-11T04:33:41.472Z,99.90
2019-02-11T04:36:09.896Z,99.90
2019-02-11T04:38:38.331Z,99.90
2019-02-11T04:41:06.958Z,99.90
2019-02-11T04:43:35.391Z,99.90
2019-02-11T04:46:03.802Z,99.90
2019-02-11T04:48:32.243Z,99.90
2019-02-11T04:51:00.955Z,99.90
2019-02-11T04:53:29.384Z,99.90
2019-02-11T04:55:57.839Z,99.90
2019-02-11T04:58:26.610Z,99.90
2019-02-11T05:00:55.045Z,99.90
2019-02-11T05:03:23.463Z,99.90
2019-02-11T05:05:52.897Z,99.90
2019-02-11T05:08:21.658Z,99.90
2019-02-11T05:10:50.147Z,99.90
2019-02-11T05:13:18.594Z,99.90
2019-02-11T05:15:47.309Z,99.90
2019-02-11T05:18:16.932Z,99.90
2019-02-11T05:20:46.018Z,99.90
2019-02-11T05:23:14.450Z,99.90
2019-02-11T05:25:42.870Z,99.90
2019-02-11T05:28:11.301Z,99.90
2019-02-11T05:30:39.721Z,99.90
2019-02-11T05:33:08.197Z,99.90
2019-02-11T05:35:36.666Z,99.90
2019-02-11T05:38:05.385Z,99.90
2019-02-11T05:40:33.798Z,99.90
2019-02-11T05:43:02.221Z,99.90
2019-02-11T05:45:31.850Z,99.90
2019-02-11T05:48:00.295Z,99.90
2019-02-11T05:50:28.866Z,99.90
2019-02-11T05:52:57.273Z,99.90
2019-02-11T05:55:25.814Z,99.90
2019-02-11T05:57:54.228Z,99.90
2019-02-11T06:00:22.662Z,99.90
2019-02-11T06:02:51.422Z,99.90
2019-02-11T06:05:19.931Z,99.90
2019-02-11T06:07:49.539Z,99.90
2019-02-11T06:10:18.021Z,99.90
2019-02-11T06:12:46.782Z,99.90
2019-02-11T06:15:15.577Z,99.90
2019-02-11T06:17:43.993Z,99.90
2019-02-11T06:20:12.425Z,99.90
2019-02-11T06:22:40.840Z,99.90
2019-02-11T06:25:09.355Z,99.90
2019-02-11T06:27:37.762Z,99.90
2019-02-11T06:30:09.750Z,99.90
2019-02-11T06:32:38.530Z,99.90
2019-02-11T06:35:08.729Z,99.90
2019-02-11T06:37:37.193Z,99.90
2019-02-11T06:40:08.940Z,99.90
2019-02-11T06:42:37.629Z,99.90
2019-02-11T06:45:13.063Z,99.90
2019-02-11T06:47:38.846Z,99.90
2019-02-11T06:50:13.412Z,99.90
2019-02-11T06:52:42.165Z,99.90
2019-02-11T06:55:12.779Z,99.70
2019-02-11T06:57:43.138Z,99.90
2019-02-11T07:00:13.609Z,99.80
2019-02-11T07:02:42.324Z,99.30
2019-02-11T07:05:11.213Z,99.30
2019-02-11T07:07:39.925Z,99.30
2019-02-11T07:10:11.150Z,99.30
2019-02-11T07:12:39.633Z,98.60
2019-02-11T07:15:11.510Z,99.30
2019-02-11T07:17:40.280Z,99.30
2019-02-11T07:20:10.225Z,99.30
2019-02-11T07:22:38.996Z,98.80
2019-02-11T07:25:08.769Z,98.60
2019-02-11T07:27:37.181Z,98.40
2019-02-11T07:30:11.145Z,98.40
2019-02-11T07:32:39.562Z,98.00
2019-02-11T07:35:08.900Z,98.30
2019-02-11T07:37:37.654Z,98.00
2019-02-11T07:40:09.106Z,98.30
2019-02-11T07:42:42.140Z,97.50
2019-02-11T07:45:13.053Z,97.60
2019-02-11T07:47:41.484Z,98.20
2019-02-11T07:50:10.037Z,98.20
2019-02-11T07:52:38.473Z,97.70
2019-02-11T07:55:07.574Z,97.90
2019-02-11T07:57:36.001Z,97.20
2019-02-11T08:00:05.951Z,97.50
2019-02-11T08:02:34.659Z,97.70
2019-02-11T08:05:03.185Z,97.60
2019-02-11T08:07:32.108Z,97.50
2019-02-11T08:10:00.517Z,97.10
2019-02-11T08:12:29.208Z,97.50
2019-02-11T08:14:57.991Z,97.50
2019-02-11T08:17:26.773Z,97.60
2019-02-11T08:19:55.759Z,97.90
2019-02-11T08:22:24.365Z,98.40
2019-02-11T08:24:53.137Z,97.80
2019-02-11T08:27:21.573Z,98.00
2019-02-11T08:29:49.985Z,98.00
2019-02-11T08:32:18.790Z,98.30
2019-02-11T08:34:47.574Z,98.30
2019-02-11T08:37:16.081Z,97.50
2019-02-11T08:39:44.849Z,97.80
2019-02-11T08:42:13.283Z,97.90
2019-02-11T08:44:41.957Z,98.10
2019-02-11T08:47:10.806Z,98.20
2019-02-11T08:49:39.293Z,98.10
2019-02-11T08:52:08.078Z,97.60
2019-02-11T08:54:36.759Z,97.80
2019-02-11T08:57:05.190Z,97.00
2019-02-11T08:59:33.615Z,97.40
2019-02-11T09:02:02.415Z,97.00
2019-02-11T09:04:31.401Z,97.50
2019-02-11T09:07:00.208Z,97.00
2019-02-11T09:09:28.623Z,96.80
2019-02-11T09:11:57.294Z,96.40
2019-02-11T09:14:25.966Z,96.50
2019-02-11T09:16:54.733Z,96.50
2019-02-11T09:19:23.230Z,95.80
2019-02-11T09:21:52.359Z,96.20
2019-02-11T09:24:34.894Z,96.40
2019-02-11T09:27:03.731Z,95.80
2019-02-11T09:29:32.149Z,95.40
2019-02-11T09:32:00.977Z,95.80
2019-02-11T09:34:29.392Z,95.60
2019-02-11T09:36:57.829Z,95.80
2019-02-11T09:39:26.244Z,95.70
2019-02-11T09:41:54.658Z,95.00
2019-02-11T09:44:29.497Z,94.90
2019-02-11T09:46:53.776Z,94.60
2019-02-11T09:49:22.274Z,94.00
2019-02-11T09:51:51.228Z,94.30
2019-02-11T09:54:19.733Z,94.50
2019-02-11T09:56:48.147Z,94.40
2019-02-11T09:59:16.945Z,94.00
2019-02-11T10:01:45.357Z,94.00
2019-02-11T10:04:13.790Z,93.60
2019-02-11T10:06:42.487Z,94.00
2019-02-11T10:09:10.994Z,93.30
2019-02-11T10:11:39.409Z,93.60
2019-02-11T10:14:08.157Z,92.80
2019-02-11T10:16:36.573Z,91.40
2019-02-11T10:19:05.446Z,90.00
2019-02-11T10:21:34.210Z,86.70
2019-02-11T10:24:02.641Z,87.10
2019-02-11T10:26:31.106Z,88.00
2019-02-11T10:29:03.128Z,88.20
2019-02-11T10:31:31.542Z,88.50
2019-02-11T10:34:00.306Z,87.80
2019-02-11T10:36:29.073Z,85.10
2019-02-11T10:38:57.873Z,85.30
2019-02-11T10:41:26.361Z,81.70
2019-02-11T10:43:55.141Z,80.40
2019-02-11T10:46:23.633Z,82.50
2019-02-11T10:48:52.133Z,83.30
2019-02-11T10:51:21.518Z,84.50
2019-02-11T10:53:49.956Z,84.00
2019-02-11T10:56:18.992Z,83.10
2019-02-11T10:58:47.813Z,82.20
2019-02-11T11:01:16.305Z,84.00
2019-02-11T11:03:44.813Z,78.20
2019-02-11T11:06:13.302Z,80.80
2019-02-11T11:08:43.293Z,80.80
2019-02-11T11:11:12.133Z,81.60
2019-02-11T11:13:40.565Z,83.00
2019-02-11T11:16:08.977Z,86.90
2019-02-11T11:18:37.413Z,89.90
2019-02-11T11:21:08.245Z,91.50
2019-02-11T11:23:36.673Z,92.30
2019-02-11T11:26:05.165Z,92.30
2019-02-11T11:28:33.600Z,92.10
2019-02-11T11:31:02.019Z,92.30
2019-02-11T11:33:30.429Z,91.10
2019-02-11T11:35:58.862Z,90.40
2019-02-11T11:38:27.281Z,90.40
2019-02-11T11:40:56.050Z,90.60
2019-02-11T11:43:24.736Z,85.90
2019-02-11T11:45:53.442Z,84.40
2019-02-11T11:48:22.225Z,79.30
2019-02-11T11:50:51.002Z,79.00
2019-02-11T11:53:19.876Z,78.40
2019-02-11T11:55:48.330Z,76.30
2019-02-11T11:58:37.676Z,77.40
2019-02-11T12:01:06.342Z,70.70
2019-02-11T12:03:34.753Z,71.30
2019-02-11T12:06:03.192Z,66.80
2019-02-11T12:08:32.082Z,68.10
2019-02-11T12:11:00.584Z,69.50
2019-02-11T12:13:29.086Z,71.40
2019-02-11T12:15:57.837Z,70.60
2019-02-11T12:18:26.330Z,72.50
2019-02-11T12:20:58.092Z,71.70
2019-02-11T12:23:26.577Z,73.50
2019-02-11T12:25:55.034Z,69.40
2019-02-11T12:28:23.742Z,71.70
2019-02-11T12:30:53.427Z,73.70
2019-02-11T12:33:22.430Z,70.20
2019-02-11T12:35:50.943Z,70.40
2019-02-11T12:38:19.376Z,73.00
2019-02-11T12:40:47.861Z,71.80
2019-02-11T12:43:16.283Z,69.20
2019-02-11T12:45:44.729Z,69.30
2019-02-11T12:48:13.302Z,68.30
2019-02-11T12:50:41.746Z,69.20
2019-02-11T12:53:10.239Z,68.90
2019-02-11T12:55:38.745Z,68.20
2019-02-11T12:58:07.264Z,64.90
2019-02-11T13:00:35.942Z,66.40
2019-02-11T13:03:05.068Z,68.00
2019-02-11T13:05:45.299Z,65.00
2019-02-11T13:08:03.660Z,63.20
2019-02-11T13:10:32.256Z,59.60
2019-02-11T13:13:00.680Z,57.50
2019-02-11T13:15:56.858Z,57.40
2019-02-11T13:17:59.700Z,58.80
2019-02-11T13:20:28.256Z,59.20
2019-02-11T13:22:56.669Z,59.80
2019-02-11T13:25:25.104Z,56.90
2019-02-11T13:27:53.834Z,58.00
2019-02-11T13:30:25.803Z,55.60
2019-02-11T13:32:54.604Z,57.30
2019-02-11T13:35:23.151Z,59.80
2019-02-11T13:37:54.714Z,59.50
2019-02-11T13:40:21.817Z,59.80
2019-02-11T13:42:50.258Z,59.80
2019-02-11T13:45:20.998Z,63.40
2019-02-11T13:47:56.109Z,59.10
2019-02-11T13:50:25.512Z,59.80
2019-02-11T13:52:54.716Z,55.60
2019-02-11T13:55:24.286Z,57.00
2019-02-11T13:57:53.221Z,58.00
2019-02-11T14:00:27.759Z,56.20
2019-02-11T14:02:58.002Z,57.00
2019-02-11T14:05:27.929Z,55.20
2019-02-11T14:07:58.053Z,53.30
2019-02-11T14:10:28.032Z,53.20
2019-02-11T14:12:56.690Z,55.40
2019-02-11T14:15:25.400Z,55.40
2019-02-11T14:18:10.373Z,54.20
2019-02-11T14:20:26.684Z,53.80
2019-02-11T14:22:55.463Z,53.20
2019-02-11T14:25:40.769Z,52.70
2019-02-11T14:27:54.567Z,51.50
2019-02-11T14:30:23.569Z,51.50
2019-02-11T14:32:52.332Z,49.90
2019-02-11T14:35:21.217Z,51.00
2019-02-11T14:37:49.953Z,47.80
2019-02-11T14:40:18.681Z,49.70
2019-02-11T14:42:47.500Z,47.70
2019-02-11T14:45:17.939Z,48.10
2019-02-11T14:47:46.472Z,49.30
2019-02-11T14:50:15.025Z,48.00
2019-02-11T14:52:43.449Z,49.10
2019-02-11T14:55:12.566Z,49.90
2019-02-11T14:57:40.998Z,51.60
2019-02-11T15:00:13.877Z,51.50
2019-02-11T15:02:42.318Z,50.30
2019-02-11T15:05:10.966Z,51.40
2019-02-11T15:07:39.477Z,51.40
2019-02-11T15:10:10.132Z,50.80
2019-02-11T15:12:38.633Z,50.60
2019-02-11T15:15:09.453Z,50.60
2019-02-11T15:17:39.158Z,49.20
2019-02-11T15:20:10.203Z,48.30
2019-02-11T15:22:38.885Z,47.20
2019-02-11T15:25:10.155Z,47.40
2019-02-11T15:27:38.906Z,47.60
2019-02-11T15:30:10.530Z,46.10
2019-02-11T15:32:38.970Z,47.00
2019-02-11T15:35:08.819Z,46.30
2019-02-11T15:37:38.143Z,46.70
2019-02-11T15:40:21.065Z,43.20
2019-02-11T15:42:49.499Z,43.60
2019-02-11T15:45:18.259Z,42.80
2019-02-11T15:47:47.051Z,43.10
2019-02-11T15:50:19.326Z,43.60
2019-02-11T15:52:48.090Z,43.30
2019-02-11T15:55:20.734Z,44.10
2019-02-11T15:57:49.238Z,43.70
2019-02-11T16:00:23.866Z,43.20
2019-02-11T16:02:52.609Z,44.10
2019-02-11T16:05:21.129Z,42.70
2019-02-11T16:07:49.595Z,44.50
2019-02-11T16:10:21.084Z,44.40
2019-02-11T16:12:49.828Z,44.10
2019-02-11T16:15:19.292Z,45.20
2019-02-11T16:17:47.874Z,44.90
2019-02-11T16:20:16.664Z,44.50
2019-02-11T16:22:45.157Z,44.50
2019-02-11T16:25:15.370Z,44.50
2019-02-11T16:27:43.946Z,44.80
2019-02-11T16:30:21.613Z,45.90
2019-02-11T16:32:50.055Z,46.00
2019-02-11T16:35:18.857Z,46.30
2019-02-11T16:37:47.703Z,45.20
2019-02-11T16:40:25.139Z,44.80
2019-02-11T16:42:53.882Z,44.90
2019-02-11T16:45:22.470Z,45.40
2019-02-11T16:47:51.233Z,46.60
2019-02-11T16:50:19.751Z,45.20
2019-02-11T16:52:48.188Z,45.70
2019-02-11T16:55:16.892Z,45.40
2019-02-11T16:57:45.598Z,46.10
2019-02-11T17:00:16.940Z,48.20
2019-02-11T17:02:45.470Z,47.20
2019-02-11T17:05:14.460Z,46.80
2019-02-11T17:07:43.205Z,47.40
2019-02-11T17:10:13.589Z,47.40
2019-02-11T17:12:42.098Z,47.70
2019-02-11T17:15:18.149Z,47.20
2019-02-11T17:17:46.589Z,47.00
2019-02-11T17:20:16.323Z,48.10
2019-02-11T17:22:45.219Z,46.80
2019-02-11T17:25:14.906Z,46.40
2019-02-11T17:27:43.495Z,47.50
2019-02-11T17:30:17.865Z,47.30
2019-02-11T17:32:46.299Z,46.70
2019-02-11T17:35:14.789Z,47.40
2019-02-11T17:37:43.217Z,46.90
2019-02-11T17:40:13.762Z,47.70
2019-02-11T17:42:42.252Z,46.80
2019-02-11T17:45:22.433Z,47.50
2019-02-11T17:47:51.261Z,52.40
2019-02-11T17:50:19.750Z,55.40
2019-02-11T17:52:49.527Z,56.60
2019-02-11T17:55:18.007Z,58.10
2019-02-11T17:57:46.488Z,59.00
2019-02-11T18:00:38.910Z,60.60
2019-02-11T18:03:07.860Z,60.00
2019-02-11T18:05:36.290Z,58.90
2019-02-11T18:08:06.036Z,58.30
2019-02-11T18:10:34.461Z,57.20
2019-02-11T18:13:03.200Z,56.50
2019-02-11T18:15:34.182Z,55.80
2019-02-11T18:18:02.926Z,55.50
2019-02-11T18:20:31.357Z,56.50
2019-02-11T18:22:59.775Z,56.40
2019-02-11T18:25:28.214Z,56.80
2019-02-11T18:27:56.625Z,58.10
2019-02-11T18:30:25.148Z,58.20
2019-02-11T18:32:54.034Z,58.80
2019-02-11T18:35:23.026Z,58.80
2019-02-11T18:37:51.776Z,59.80
2019-02-11T18:40:20.202Z,61.80
2019-02-11T18:42:49.003Z,64.00
2019-02-11T18:45:19.470Z,65.60
2019-02-11T18:47:47.893Z,66.40
2019-02-11T18:50:16.667Z,67.90
2019-02-11T18:52:45.157Z,68.70
2019-02-11T18:55:16.008Z,70.10
2019-02-11T18:57:45.299Z,72.30
2019-02-11T19:00:19.106Z,73.50
2019-02-11T19:02:48.449Z,77.80
2019-02-11T19:05:18.011Z,78.90
2019-02-11T19:07:46.511Z,80.60
2019-02-11T19:10:16.707Z,80.30
2019-02-11T19:12:45.602Z,80.60
2019-02-11T19:15:15.584Z,80.40
2019-02-11T19:17:43.994Z,79.70
2019-02-11T19:20:14.266Z,78.60
2019-02-11T19:22:42.744Z,77.80
2019-02-11T19:25:12.310Z,78.10
2019-02-11T19:27:41.097Z,77.80
2019-02-11T19:30:15.191Z,77.60
2019-02-11T19:32:43.621Z,79.10
2019-02-11T19:35:12.037Z,79.10
2019-02-11T19:37:40.478Z,78.30
2019-02-11T19:40:12.101Z,78.30
2019-02-11T19:42:40.897Z,78.90
2019-02-11T19:45:12.958Z,79.70
2019-02-11T19:47:41.486Z,80.10
2019-02-11T19:50:15.369Z,79.60
2019-02-11T19:52:44.142Z,80.20
2019-02-11T19:55:14.682Z,81.00
2019-02-11T19:57:43.174Z,81.30
2019-02-11T20:00:19.742Z,80.90
2019-02-11T20:02:49.047Z,82.40
2019-02-11T20:05:17.619Z,81.80
2019-02-11T20:07:46.290Z,80.90
2019-02-11T20:10:22.977Z,79.90
2019-02-11T20:12:51.879Z,79.70
2019-02-11T20:15:25.674Z,79.50
2019-02-11T20:17:54.465Z,77.80
2019-02-11T20:20:23.872Z,77.50
2019-02-11T20:22:52.313Z,76.30
2019-02-11T20:25:21.025Z,75.80
2019-02-11T20:27:49.727Z,75.20
2019-02-11T20:30:24.663Z,73.30
2019-02-11T20:32:53.096Z,73.70
2019-02-11T20:35:21.592Z,72.70
2019-02-11T20:37:50.039Z,71.90
2019-02-11T20:40:21.234Z,72.40
2019-02-11T20:42:49.649Z,72.70
2019-02-11T20:45:28.828Z,71.70
2019-02-11T20:47:57.648Z,71.50
2019-02-11T20:50:26.289Z,70.90
2019-02-11T20:52:55.369Z,69.30
2019-02-11T20:55:23.805Z,69.70
2019-02-11T20:57:55.367Z,69.00
2019-02-11T21:00:25.443Z,68.70
2019-02-11T21:02:53.858Z,69.30
2019-02-11T21:05:23.106Z,69.30
2019-02-11T21:07:51.618Z,69.00
2019-02-11T21:10:22.741Z,67.10
2019-02-11T21:12:51.474Z,68.40
2019-02-11T21:15:19.982Z,67.00
2019-02-11T21:17:48.477Z,67.00
2019-02-11T21:20:20.490Z,66.90
2019-02-11T21:22:48.922Z,67.80
2019-02-11T21:25:17.597Z,66.90
2019-02-11T21:27:46.358Z,66.90
2019-02-11T21:30:15.611Z,66.90
2019-02-11T21:32:44.039Z,66.80
2019-02-11T21:35:13.437Z,67.00
2019-02-11T21:37:41.858Z,66.80
2019-02-11T21:40:10.293Z,66.80
2019-02-11T21:42:38.718Z,67.90
2019-02-11T21:45:10.319Z,67.90
2019-02-11T21:47:39.132Z,67.70
2019-02-11T21:50:13.753Z,67.60
2019-02-11T21:52:42.258Z,69.10
2019-02-11T21:55:15.370Z,68.80
2019-02-11T21:57:43.813Z,68.70
2019-02-11T22:00:15.334Z,68.40
2019-02-11T22:02:43.782Z,70.50
2019-02-11T22:05:13.215Z,69.20
2019-02-11T22:07:41.654Z,70.20
2019-02-11T22:10:13.277Z,70.90
2019-02-11T22:12:41.780Z,71.20
2019-02-11T22:15:12.242Z,71.10
2019-02-11T22:17:40.977Z,72.90
2019-02-11T22:20:15.080Z,72.40
2019-02-11T22:22:43.514Z,72.70
2019-02-11T22:25:13.245Z,74.60
2019-02-11T22:27:41.945Z,74.80
2019-02-11T22:30:21.538Z,74.70
2019-02-11T22:32:50.062Z,75.30
2019-02-11T22:35:18.564Z,76.30
2019-02-11T22:37:49.417Z,76.80
2019-02-11T22:40:18.181Z,76.10
2019-02-11T22:42:46.601Z,76.30
2019-02-11T22:45:18.114Z,75.70
2019-02-11T22:47:46.605Z,77.50
2019-02-11T22:50:15.186Z,77.50
2019-02-11T22:52:43.600Z,78.60
2019-02-11T22:55:13.886Z,77.20
2019-02-11T22:57:42.306Z,77.90
2019-02-11T23:00:27.426Z,77.20
2019-02-11T23:02:56.252Z,76.80
2019-02-11T23:05:25.133Z,76.20
2019-02-11T23:07:53.926Z,76.50
2019-02-11T23:10:22.356Z,77.40
2019-02-11T23:12:50.774Z,77.60
2019-02-11T23:15:21.041Z,78.10
2019-02-11T23:17:49.504Z,78.00
2019-02-11T23:20:19.277Z,77.40
2019-02-11T23:22:47.697Z,77.50
2019-02-11T23:25:16.550Z,76.80
2019-02-11T23:27:45.342Z,75.70
2019-02-11T23:30:14.019Z,75.80
2019-02-11T23:32:42.432Z,73.80
2019-02-11T23:35:11.034Z,73.50
2019-02-11T23:37:39.454Z,73.50
2019-02-11T23:40:09.534Z,74.00
2019-02-11T23:42:37.952Z,72.50
2019-02-11T23:45:09.130Z,71.70
2019-02-11T23:47:37.544Z,70.60
2019-02-11T23:50:09.025Z,71.40
2019-02-11T23:52:37.462Z,69.50
2019-02-11T23:55:08.686Z,68.90
2019-02-11T23:57:37.098Z,71.60
